EGPB/LSI METAR and TAF weather

Enter ICAO airport designator
Station Type Date Time Source
EGPB METAR 2019/05/27 08:50 UTC NOAA

EGPB 270850Z 34010KT 9999 VCSH FEW023 SCT041 08/02 Q1005


Station Type Date Time Source
EGPB Decoded METAR 2019/05/27 08:50 UTC NOAA

Sumburgh Cape , United Kingdom (EGPB) 59-53N 001-18W
May 27, 2019 - 04:50 AM EDT / 2019.05.27 0850 UTC
Wind: from the NNW (340 degrees) at 12 MPH (10 KT):0
Visibility: greater than 7 mile(s):0
Sky conditions: partly cloudy
Weather: showers in the vicinity
Temperature: 46 F (8 C)
Dew Point: 35 F (2 C)
Relative Humidity: 65%
Pressure (altimeter): 29.68 in. Hg (1005 hPa)
ob: EGPB 270850Z 34010KT 9999 VCSH FEW023 SCT041 08/02 Q1005
cycle: 9

Station Type Date Time Source
EGPB TAF UTC NOAA

Error!

Example: see airport list